sensor_id;sensor_type;location;lat;lon;timestamp;temperature;humidity
74224;SHT31;62585;49.706;18.216;2023-09-07T00:00:23;16.19;75.14
74224;SHT31;62585;49.706;18.216;2023-09-07T00:03:09;16.12;75.88
74224;SHT31;62585;49.706;18.216;2023-09-07T00:05:34;15.84;76.77
74224;SHT31;62585;49.706;18.216;2023-09-07T00:08:00;15.97;75.65
74224;SHT31;62585;49.706;18.216;2023-09-07T00:10:26;16.01;75.42
74224;SHT31;62585;49.706;18.216;2023-09-07T00:12:52;15.97;75.72
74224;SHT31;62585;49.706;18.216;2023-09-07T00:15:18;15.74;76.16
74224;SHT31;62585;49.706;18.216;2023-09-07T00:17:47;15.73;76.06
74224;SHT31;62585;49.706;18.216;2023-09-07T00:20:13;15.68;76.11
74224;SHT31;62585;49.706;18.216;2023-09-07T00:22:41;15.84;75.72
74224;SHT31;62585;49.706;18.216;2023-09-07T00:25:07;15.74;75.90
74224;SHT31;62585;49.706;18.216;2023-09-07T00:27:34;15.70;76.07
74224;SHT31;62585;49.706;18.216;2023-09-07T00:30:00;15.57;76.33
74224;SHT31;62585;49.706;18.216;2023-09-07T00:32:26;15.63;75.96
74224;SHT31;62585;49.706;18.216;2023-09-07T00:34:51;15.77;75.71
74224;SHT31;62585;49.706;18.216;2023-09-07T00:37:17;15.68;75.48
74224;SHT31;62585;49.706;18.216;2023-09-07T00:39:43;15.60;75.31
74224;SHT31;62585;49.706;18.216;2023-09-07T00:42:09;15.70;75.66
74224;SHT31;62585;49.706;18.216;2023-09-07T00:44:34;15.61;75.05
74224;SHT31;62585;49.706;18.216;2023-09-07T00:47:01;15.60;75.79
74224;SHT31;62585;49.706;18.216;2023-09-07T00:49:26;15.33;76.77
74224;SHT31;62585;49.706;18.216;2023-09-07T00:51:52;15.20;77.30
74224;SHT31;62585;49.706;18.216;2023-09-07T00:54:19;15.33;76.52
74224;SHT31;62585;49.706;18.216;2023-09-07T00:56:45;15.16;76.97
74224;SHT31;62585;49.706;18.216;2023-09-07T00:59:11;14.95;77.24
74224;SHT31;62585;49.706;18.216;2023-09-07T01:01:38;14.99;77.06
74224;SHT31;62585;49.706;18.216;2023-09-07T01:04:04;15.02;76.78
74224;SHT31;62585;49.706;18.216;2023-09-07T01:06:34;15.06;76.30
74224;SHT31;62585;49.706;18.216;2023-09-07T01:09:06;14.79;76.49
74224;SHT31;62585;49.706;18.216;2023-09-07T01:11:37;14.67;77.22
74224;SHT31;62585;49.706;18.216;2023-09-07T01:14:03;14.47;77.65
74224;SHT31;62585;49.706;18.216;2023-09-07T01:16:31;14.67;76.90
74224;SHT31;62585;49.706;18.216;2023-09-07T01:19:00;14.64;76.78
74224;SHT31;62585;49.706;18.216;2023-09-07T01:21:27;14.60;77.62
74224;SHT31;62585;49.706;18.216;2023-09-07T01:23:53;14.89;77.80
74224;SHT31;62585;49.706;18.216;2023-09-07T01:26:19;14.85;77.59
74224;SHT31;62585;49.706;18.216;2023-09-07T01:28:45;14.89;76.46
74224;SHT31;62585;49.706;18.216;2023-09-07T01:31:11;15.00;76.22
74224;SHT31;62585;49.706;18.216;2023-09-07T01:33:37;14.91;77.03
74224;SHT31;62585;49.706;18.216;2023-09-07T01:36:03;14.92;76.80
74224;SHT31;62585;49.706;18.216;2023-09-07T01:38:29;14.72;76.77
74224;SHT31;62585;49.706;18.216;2023-09-07T01:40:55;14.54;77.74
74224;SHT31;62585;49.706;18.216;2023-09-07T01:43:21;14.48;77.91
74224;SHT31;62585;49.706;18.216;2023-09-07T01:45:46;14.44;77.65
74224;SHT31;62585;49.706;18.216;2023-09-07T01:48:14;14.60;76.89
74224;SHT31;62585;49.706;18.216;2023-09-07T01:50:40;14.68;77.58
74224;SHT31;62585;49.706;18.216;2023-09-07T01:53:05;14.77;77.38
74224;SHT31;62585;49.706;18.216;2023-09-07T01:55:32;14.71;77.69
74224;SHT31;62585;49.706;18.216;2023-09-07T01:57:57;14.75;77.24
74224;SHT31;62585;49.706;18.216;2023-09-07T02:00:23;14.78;77.12
74224;SHT31;62585;49.706;18.216;2023-09-07T02:02:49;14.75;77.11
74224;SHT31;62585;49.706;18.216;2023-09-07T02:05:15;14.78;77.01
74224;SHT31;62585;49.706;18.216;2023-09-07T02:07:42;14.87;76.79
74224;SHT31;62585;49.706;18.216;2023-09-07T02:12:45;14.78;76.84
74224;SHT31;62585;49.706;18.216;2023-09-07T02:15:11;14.67;76.45
74224;SHT31;62585;49.706;18.216;2023-09-07T02:17:37;14.59;77.36
74224;SHT31;62585;49.706;18.216;2023-09-07T02:20:03;14.60;77.71
74224;SHT31;62585;49.706;18.216;2023-09-07T02:22:36;14.44;78.21
74224;SHT31;62585;49.706;18.216;2023-09-07T02:25:02;14.54;77.46
74224;SHT31;62585;49.706;18.216;2023-09-07T02:27:28;14.52;76.43
74224;SHT31;62585;49.706;18.216;2023-09-07T02:29:54;14.52;76.31
74224;SHT31;62585;49.706;18.216;2023-09-07T02:32:20;14.34;76.81
74224;SHT31;62585;49.706;18.216;2023-09-07T02:34:46;14.24;77.33
74224;SHT31;62585;49.706;18.216;2023-09-07T02:37:12;14.30;77.87
74224;SHT31;62585;49.706;18.216;2023-09-07T02:39:40;14.38;77.90
74224;SHT31;62585;49.706;18.216;2023-09-07T02:42:06;14.30;77.99
74224;SHT31;62585;49.706;18.216;2023-09-07T02:44:32;14.34;78.09
74224;SHT31;62585;49.706;18.216;2023-09-07T02:46:57;14.41;77.75
74224;SHT31;62585;49.706;18.216;2023-09-07T02:49:23;14.44;77.58
74224;SHT31;62585;49.706;18.216;2023-09-07T02:51:49;14.38;77.67
74224;SHT31;62585;49.706;18.216;2023-09-07T02:54:15;14.40;77.50
74224;SHT31;62585;49.706;18.216;2023-09-07T02:56:41;14.32;78.23
74224;SHT31;62585;49.706;18.216;2023-09-07T02:59:07;13.96;79.33
74224;SHT31;62585;49.706;18.216;2023-09-07T03:01:33;14.10;78.69
74224;SHT31;62585;49.706;18.216;2023-09-07T03:04:00;14.23;77.73
74224;SHT31;62585;49.706;18.216;2023-09-07T03:06:25;14.12;77.52
74224;SHT31;62585;49.706;18.216;2023-09-07T03:08:51;14.17;76.81
74224;SHT31;62585;49.706;18.216;2023-09-07T03:11:18;14.29;77.13
74224;SHT31;62585;49.706;18.216;2023-09-07T03:13:44;14.33;77.12
74224;SHT31;62585;49.706;18.216;2023-09-07T03:16:10;14.36;76.54
74224;SHT31;62585;49.706;18.216;2023-09-07T03:18:36;14.32;76.42
74224;SHT31;62585;49.706;18.216;2023-09-07T03:21:02;14.33;76.11
74224;SHT31;62585;49.706;18.216;2023-09-07T03:23:31;14.37;75.52
74224;SHT31;62585;49.706;18.216;2023-09-07T03:25:57;14.59;75.11
74224;SHT31;62585;49.706;18.216;2023-09-07T03:28:23;14.54;74.64
74224;SHT31;62585;49.706;18.216;2023-09-07T03:30:54;14.40;74.71
74224;SHT31;62585;49.706;18.216;2023-09-07T03:33:20;14.26;76.03
74224;SHT31;62585;49.706;18.216;2023-09-07T03:35:46;14.05;76.68
74224;SHT31;62585;49.706;18.216;2023-09-07T03:38:13;13.98;76.71
74224;SHT31;62585;49.706;18.216;2023-09-07T03:40:39;13.85;77.05
74224;SHT31;62585;49.706;18.216;2023-09-07T03:43:05;13.76;77.14
74224;SHT31;62585;49.706;18.216;2023-09-07T03:45:31;13.74;76.74
74224;SHT31;62585;49.706;18.216;2023-09-07T03:47:57;13.57;77.68
74224;SHT31;62585;49.706;18.216;2023-09-07T03:50:23;13.58;78.84
74224;SHT31;62585;49.706;18.216;2023-09-07T03:52:49;13.62;78.90
74224;SHT31;62585;49.706;18.216;2023-09-07T03:55:15;13.64;78.30
74224;SHT31;62585;49.706;18.216;2023-09-07T03:57:41;13.74;78.67
74224;SHT31;62585;49.706;18.216;2023-09-07T04:00:07;13.40;79.98
74224;SHT31;62585;49.706;18.216;2023-09-07T04:02:34;13.43;79.88
74224;SHT31;62585;49.706;18.216;2023-09-07T04:05:00;13.61;79.06
74224;SHT31;62585;49.706;18.216;2023-09-07T04:07:31;13.66;78.59
74224;SHT31;62585;49.706;18.216;2023-09-07T04:09:57;13.72;77.96
74224;SHT31;62585;49.706;18.216;2023-09-07T04:12:23;13.58;77.91
74224;SHT31;62585;49.706;18.216;2023-09-07T04:14:49;13.51;78.28
74224;SHT31;62585;49.706;18.216;2023-09-07T04:17:15;13.55;78.38
74224;SHT31;62585;49.706;18.216;2023-09-07T04:19:40;13.48;78.22
74224;SHT31;62585;49.706;18.216;2023-09-07T04:22:06;13.62;78.09
74224;SHT31;62585;49.706;18.216;2023-09-07T04:24:33;13.57;77.50
74224;SHT31;62585;49.706;18.216;2023-09-07T04:27:00;13.41;77.69
74224;SHT31;62585;49.706;18.216;2023-09-07T04:29:26;13.30;77.74
74224;SHT31;62585;49.706;18.216;2023-09-07T04:31:53;13.26;77.64
74224;SHT31;62585;49.706;18.216;2023-09-07T04:34:18;13.24;77.91
74224;SHT31;62585;49.706;18.216;2023-09-07T04:36:44;13.18;78.90
74224;SHT31;62585;49.706;18.216;2023-09-07T04:39:10;13.26;78.61
74224;SHT31;62585;49.706;18.216;2023-09-07T04:41:36;13.41;78.02
74224;SHT31;62585;49.706;18.216;2023-09-07T04:44:02;13.36;78.48
74224;SHT31;62585;49.706;18.216;2023-09-07T04:46:28;13.40;78.32
74224;SHT31;62585;49.706;18.216;2023-09-07T04:48:54;13.47;78.29
74224;SHT31;62585;49.706;18.216;2023-09-07T04:51:20;13.53;77.86
74224;SHT31;62585;49.706;18.216;2023-09-07T04:53:47;13.36;78.89
74224;SHT31;62585;49.706;18.216;2023-09-07T04:56:13;13.31;79.35
74224;SHT31;62585;49.706;18.216;2023-09-07T04:58:39;13.40;79.53
74224;SHT31;62585;49.706;18.216;2023-09-07T05:01:06;13.30;79.53
74224;SHT31;62585;49.706;18.216;2023-09-07T05:03:34;13.55;78.61
74224;SHT31;62585;49.706;18.216;2023-09-07T05:06:01;13.58;78.67
74224;SHT31;62585;49.706;18.216;2023-09-07T05:08:28;13.65;78.73
74224;SHT31;62585;49.706;18.216;2023-09-07T05:10:59;13.79;78.76
74224;SHT31;62585;49.706;18.216;2023-09-07T05:13:26;13.92;78.61
74224;SHT31;62585;49.706;18.216;2023-09-07T05:15:54;13.95;78.58
74224;SHT31;62585;49.706;18.216;2023-09-07T05:18:20;14.03;78.66
74224;SHT31;62585;49.706;18.216;2023-09-07T05:20:47;13.93;79.40
74224;SHT31;62585;49.706;18.216;2023-09-07T05:23:20;14.06;79.70
74224;SHT31;62585;49.706;18.216;2023-09-07T05:25:48;14.05;79.69
74224;SHT31;62585;49.706;18.216;2023-09-07T05:28:14;14.03;80.20
74224;SHT31;62585;49.706;18.216;2023-09-07T05:30:41;14.08;80.23
74224;SHT31;62585;49.706;18.216;2023-09-07T05:33:11;14.27;79.89
74224;SHT31;62585;49.706;18.216;2023-09-07T05:35:38;14.40;79.61
74224;SHT31;62585;49.706;18.216;2023-09-07T05:38:05;14.44;79.77
74224;SHT31;62585;49.706;18.216;2023-09-07T05:40:38;14.45;79.63
74224;SHT31;62585;49.706;18.216;2023-09-07T05:43:04;14.44;80.07
74224;SHT31;62585;49.706;18.216;2023-09-07T05:45:31;14.56;79.87
74224;SHT31;62585;49.706;18.216;2023-09-07T05:47:57;14.77;79.58
74224;SHT31;62585;49.706;18.216;2023-09-07T05:50:23;14.91;79.50
74224;SHT31;62585;49.706;18.216;2023-09-07T05:52:49;15.08;79.25
74224;SHT31;62585;49.706;18.216;2023-09-07T05:55:15;15.15;79.24
74224;SHT31;62585;49.706;18.216;2023-09-07T05:57:41;15.25;79.28
74224;SHT31;62585;49.706;18.216;2023-09-07T06:00:07;15.09;79.86
74224;SHT31;62585;49.706;18.216;2023-09-07T06:02:33;15.13;80.13
74224;SHT31;62585;49.706;18.216;2023-09-07T06:04:59;15.03;80.94
74224;SHT31;62585;49.706;18.216;2023-09-07T06:07:25;15.10;81.15
74224;SHT31;62585;49.706;18.216;2023-09-07T06:09:51;15.16;80.84
74224;SHT31;62585;49.706;18.216;2023-09-07T06:12:17;15.27;80.85
74224;SHT31;62585;49.706;18.216;2023-09-07T06:14:45;15.54;79.73
74224;SHT31;62585;49.706;18.216;2023-09-07T06:17:12;15.74;78.93
74224;SHT31;62585;49.706;18.216;2023-09-07T06:19:38;15.94;78.67
74224;SHT31;62585;49.706;18.216;2023-09-07T06:22:04;16.06;78.14
74224;SHT31;62585;49.706;18.216;2023-09-07T06:24:30;16.38;77.49
74224;SHT31;62585;49.706;18.216;2023-09-07T06:26:55;16.48;77.91
74224;SHT31;62585;49.706;18.216;2023-09-07T06:29:21;16.70;77.46
74224;SHT31;62585;49.706;18.216;2023-09-07T06:31:47;16.49;77.70
74224;SHT31;62585;49.706;18.216;2023-09-07T06:34:16;16.60;77.92
74224;SHT31;62585;49.706;18.216;2023-09-07T06:36:41;16.69;78.33
74224;SHT31;62585;49.706;18.216;2023-09-07T06:39:07;16.87;77.94
74224;SHT31;62585;49.706;18.216;2023-09-07T06:41:33;17.25;77.42
74224;SHT31;62585;49.706;18.216;2023-09-07T06:43:59;17.46;76.65
74224;SHT31;62585;49.706;18.216;2023-09-07T06:46:24;17.53;77.42
74224;SHT31;62585;49.706;18.216;2023-09-07T06:48:50;17.66;76.28
74224;SHT31;62585;49.706;18.216;2023-09-07T06:51:16;17.83;76.28
74224;SHT31;62585;49.706;18.216;2023-09-07T06:53:42;17.77;74.95
74224;SHT31;62585;49.706;18.216;2023-09-07T06:56:08;18.10;75.29
74224;SHT31;62585;49.706;18.216;2023-09-07T06:58:34;18.24;75.58
74224;SHT31;62585;49.706;18.216;2023-09-07T07:01:01;18.41;75.60
74224;SHT31;62585;49.706;18.216;2023-09-07T07:03:28;18.44;75.69
74224;SHT31;62585;49.706;18.216;2023-09-07T07:05:55;18.17;74.69
74224;SHT31;62585;49.706;18.216;2023-09-07T07:08:21;17.86;76.03
74224;SHT31;62585;49.706;18.216;2023-09-07T07:10:48;18.05;75.06
74224;SHT31;62585;49.706;18.216;2023-09-07T07:13:14;18.27;74.44
74224;SHT31;62585;49.706;18.216;2023-09-07T07:15:39;18.51;74.79
74224;SHT31;62585;49.706;18.216;2023-09-07T07:18:05;18.62;74.69
74224;SHT31;62585;49.706;18.216;2023-09-07T07:20:35;18.90;73.99
74224;SHT31;62585;49.706;18.216;2023-09-07T07:23:01;19.13;73.06
74224;SHT31;62585;49.706;18.216;2023-09-07T07:25:27;18.80;72.82
74224;SHT31;62585;49.706;18.216;2023-09-07T07:27:53;18.66;73.37
74224;SHT31;62585;49.706;18.216;2023-09-07T07:30:19;19.00;73.50
74224;SHT31;62585;49.706;18.216;2023-09-07T07:32:45;19.13;71.78
74224;SHT31;62585;49.706;18.216;2023-09-07T07:35:11;18.95;72.79
74224;SHT31;62585;49.706;18.216;2023-09-07T07:37:37;19.06;74.75
74224;SHT31;62585;49.706;18.216;2023-09-07T07:40:03;19.38;73.44
74224;SHT31;62585;49.706;18.216;2023-09-07T07:42:30;19.68;71.79
74224;SHT31;62585;49.706;18.216;2023-09-07T07:44:56;19.72;71.57
74224;SHT31;62585;49.706;18.216;2023-09-07T07:47:24;19.82;71.96
74224;SHT31;62585;49.706;18.216;2023-09-07T07:49:51;19.93;70.93
74224;SHT31;62585;49.706;18.216;2023-09-07T07:52:17;19.92;72.45
74224;SHT31;62585;49.706;18.216;2023-09-07T07:54:43;19.96;72.47
74224;SHT31;62585;49.706;18.216;2023-09-07T07:57:09;20.16;71.27
74224;SHT31;62585;49.706;18.216;2023-09-07T07:59:36;20.27;71.25
74224;SHT31;62585;49.706;18.216;2023-09-07T08:02:02;20.24;72.05
74224;SHT31;62585;49.706;18.216;2023-09-07T08:04:28;20.32;72.88
74224;SHT31;62585;49.706;18.216;2023-09-07T08:06:54;20.29;71.84
74224;SHT31;62585;49.706;18.216;2023-09-07T08:09:23;20.48;71.89
74224;SHT31;62585;49.706;18.216;2023-09-07T08:11:49;20.17;71.91
74224;SHT31;62585;49.706;18.216;2023-09-07T08:14:16;20.13;72.97
74224;SHT31;62585;49.706;18.216;2023-09-07T08:16:42;20.29;70.85
74224;SHT31;62585;49.706;18.216;2023-09-07T08:19:08;20.50;71.09
74224;SHT31;62585;49.706;18.216;2023-09-07T08:21:34;20.64;70.14
74224;SHT31;62585;49.706;18.216;2023-09-07T08:24:00;21.03;70.28
74224;SHT31;62585;49.706;18.216;2023-09-07T08:26:28;21.42;68.93
74224;SHT31;62585;49.706;18.216;2023-09-07T08:28:54;21.54;66.36
74224;SHT31;62585;49.706;18.216;2023-09-07T08:31:20;21.68;66.56
74224;SHT31;62585;49.706;18.216;2023-09-07T08:33:48;21.57;67.73
74224;SHT31;62585;49.706;18.216;2023-09-07T08:36:16;21.70;68.09
74224;SHT31;62585;49.706;18.216;2023-09-07T08:38:48;22.09;67.01
74224;SHT31;62585;49.706;18.216;2023-09-07T08:41:14;22.01;67.62
74224;SHT31;62585;49.706;18.216;2023-09-07T08:43:45;22.25;65.59
74224;SHT31;62585;49.706;18.216;2023-09-07T08:46:18;22.04;67.55
74224;SHT31;62585;49.706;18.216;2023-09-07T08:48:46;22.32;66.49
74224;SHT31;62585;49.706;18.216;2023-09-07T08:51:15;22.53;64.46
74224;SHT31;62585;49.706;18.216;2023-09-07T08:53:41;22.67;64.08
74224;SHT31;62585;49.706;18.216;2023-09-07T08:56:12;22.61;64.76
74224;SHT31;62585;49.706;18.216;2023-09-07T08:58:38;23.00;62.76
74224;SHT31;62585;49.706;18.216;2023-09-07T09:01:08;22.91;65.84
74224;SHT31;62585;49.706;18.216;2023-09-07T09:03:38;23.06;64.58
74224;SHT31;62585;49.706;18.216;2023-09-07T09:06:04;23.03;64.66
74224;SHT31;62585;49.706;18.216;2023-09-07T09:08:56;22.64;65.90
74224;SHT31;62585;49.706;18.216;2023-09-07T09:11:23;23.18;63.85
74224;SHT31;62585;49.706;18.216;2023-09-07T09:13:51;23.31;62.53
74224;SHT31;62585;49.706;18.216;2023-09-07T09:16:18;23.28;62.68
74224;SHT31;62585;49.706;18.216;2023-09-07T09:18:52;23.49;63.04
74224;SHT31;62585;49.706;18.216;2023-09-07T09:21:23;23.59;61.60
74224;SHT31;62585;49.706;18.216;2023-09-07T09:23:50;23.56;61.98
74224;SHT31;62585;49.706;18.216;2023-09-07T09:26:17;23.80;62.47
74224;SHT31;62585;49.706;18.216;2023-09-07T09:28:44;23.54;64.01
74224;SHT31;62585;49.706;18.216;2023-09-07T09:31:14;23.80;61.75
74224;SHT31;62585;49.706;18.216;2023-09-07T09:33:41;23.94;62.89
74224;SHT31;62585;49.706;18.216;2023-09-07T09:36:08;24.16;60.77
74224;SHT31;62585;49.706;18.216;2023-09-07T09:38:35;24.10;62.70
74224;SHT31;62585;49.706;18.216;2023-09-07T09:41:02;24.03;63.84
74224;SHT31;62585;49.706;18.216;2023-09-07T09:43:30;23.72;63.45
74224;SHT31;62585;49.706;18.216;2023-09-07T09:45:57;23.96;60.94
74224;SHT31;62585;49.706;18.216;2023-09-07T09:48:27;24.14;62.19
74224;SHT31;62585;49.706;18.216;2023-09-07T09:50:53;24.09;60.72
74224;SHT31;62585;49.706;18.216;2023-09-07T09:53:19;24.25;63.81
74224;SHT31;62585;49.706;18.216;2023-09-07T09:55:50;24.51;60.25
74224;SHT31;62585;49.706;18.216;2023-09-07T09:58:18;24.78;60.85
74224;SHT31;62585;49.706;18.216;2023-09-07T10:00:49;24.51;61.23
74224;SHT31;62585;49.706;18.216;2023-09-07T10:03:25;24.54;59.84
74224;SHT31;62585;49.706;18.216;2023-09-07T10:05:56;24.79;59.91
74224;SHT31;62585;49.706;18.216;2023-09-07T10:08:32;24.75;58.67
74224;SHT31;62585;49.706;18.216;2023-09-07T10:10:58;24.90;57.97
74224;SHT31;62585;49.706;18.216;2023-09-07T10:13:30;24.97;55.65
74224;SHT31;62585;49.706;18.216;2023-09-07T10:16:00;25.23;55.34
74224;SHT31;62585;49.706;18.216;2023-09-07T10:18:37;25.41;56.31
74224;SHT31;62585;49.706;18.216;2023-09-07T10:21:04;25.65;56.97
74224;SHT31;62585;49.706;18.216;2023-09-07T10:23:40;25.98;57.38
74224;SHT31;62585;49.706;18.216;2023-09-07T10:26:17;26.28;54.08
74224;SHT31;62585;49.706;18.216;2023-09-07T10:28:44;26.36;55.61
74224;SHT31;62585;49.706;18.216;2023-09-07T10:31:17;26.30;54.12
74224;SHT31;62585;49.706;18.216;2023-09-07T10:33:43;25.80;54.93
74224;SHT31;62585;49.706;18.216;2023-09-07T10:36:29;26.01;55.63
74224;SHT31;62585;49.706;18.216;2023-09-07T10:38:55;26.25;53.57
74224;SHT31;62585;49.706;18.216;2023-09-07T10:41:22;26.05;53.20
74224;SHT31;62585;49.706;18.216;2023-09-07T10:43:50;26.32;54.60
74224;SHT31;62585;49.706;18.216;2023-09-07T10:46:23;26.35;53.10
74224;SHT31;62585;49.706;18.216;2023-09-07T10:48:53;26.51;53.39
74224;SHT31;62585;49.706;18.216;2023-09-07T10:51:19;26.77;52.19
74224;SHT31;62585;49.706;18.216;2023-09-07T10:53:45;26.77;51.94
74224;SHT31;62585;49.706;18.216;2023-09-07T10:56:11;26.99;52.89
74224;SHT31;62585;49.706;18.216;2023-09-07T10:58:38;27.24;51.18
74224;SHT31;62585;49.706;18.216;2023-09-07T11:01:11;27.28;53.24
74224;SHT31;62585;49.706;18.216;2023-09-07T11:03:37;27.45;52.29
74224;SHT31;62585;49.706;18.216;2023-09-07T11:06:04;27.45;51.72
74224;SHT31;62585;49.706;18.216;2023-09-07T11:08:30;27.50;51.82
74224;SHT31;62585;49.706;18.216;2023-09-07T11:10:56;27.29;49.91
74224;SHT31;62585;49.706;18.216;2023-09-07T11:13:26;27.62;51.05
74224;SHT31;62585;49.706;18.216;2023-09-07T11:15:56;27.49;51.43
74224;SHT31;62585;49.706;18.216;2023-09-07T11:18:23;27.83;51.03
74224;SHT31;62585;49.706;18.216;2023-09-07T11:20:51;27.93;52.14
74224;SHT31;62585;49.706;18.216;2023-09-07T11:23:17;28.12;50.98
74224;SHT31;62585;49.706;18.216;2023-09-07T11:25:44;28.01;50.77
74224;SHT31;62585;49.706;18.216;2023-09-07T11:28:09;27.93;49.88
74224;SHT31;62585;49.706;18.216;2023-09-07T11:30:49;28.41;53.39
74224;SHT31;62585;49.706;18.216;2023-09-07T11:33:16;28.22;49.03
74224;SHT31;62585;49.706;18.216;2023-09-07T11:35:42;28.31;51.54
74224;SHT31;62585;49.706;18.216;2023-09-07T11:38:11;28.17;50.06
74224;SHT31;62585;49.706;18.216;2023-09-07T11:40:38;28.44;51.03
74224;SHT31;62585;49.706;18.216;2023-09-07T11:43:03;28.42;47.88
74224;SHT31;62585;49.706;18.216;2023-09-07T11:45:30;28.48;50.65
74224;SHT31;62585;49.706;18.216;2023-09-07T11:47:57;28.66;48.62
74224;SHT31;62585;49.706;18.216;2023-09-07T11:50:24;28.32;49.24
74224;SHT31;62585;49.706;18.216;2023-09-07T11:52:56;28.20;49.46
74224;SHT31;62585;49.706;18.216;2023-09-07T11:55:22;28.58;49.83
74224;SHT31;62585;49.706;18.216;2023-09-07T11:57:48;28.56;48.99
74224;SHT31;62585;49.706;18.216;2023-09-07T12:00:14;28.37;49.33
74224;SHT31;62585;49.706;18.216;2023-09-07T12:02:40;28.83;50.27
74224;SHT31;62585;49.706;18.216;2023-09-07T12:05:07;28.49;48.38
74224;SHT31;62585;49.706;18.216;2023-09-07T12:07:40;28.34;49.77
74224;SHT31;62585;49.706;18.216;2023-09-07T12:10:06;28.53;50.85
74224;SHT31;62585;49.706;18.216;2023-09-07T12:12:39;28.48;50.30
74224;SHT31;62585;49.706;18.216;2023-09-07T12:15:06;28.67;49.75
74224;SHT31;62585;49.706;18.216;2023-09-07T12:17:32;28.89;50.24
74224;SHT31;62585;49.706;18.216;2023-09-07T12:19:59;28.59;48.94
74224;SHT31;62585;49.706;18.216;2023-09-07T12:22:26;28.55;48.96
74224;SHT31;62585;49.706;18.216;2023-09-07T12:24:52;28.92;48.46
74224;SHT31;62585;49.706;18.216;2023-09-07T12:27:19;29.28;49.24
74224;SHT31;62585;49.706;18.216;2023-09-07T12:29:45;29.47;48.35
74224;SHT31;62585;49.706;18.216;2023-09-07T12:32:11;29.38;48.08
74224;SHT31;62585;49.706;18.216;2023-09-07T12:34:37;29.54;47.20
74224;SHT31;62585;49.706;18.216;2023-09-07T12:37:04;29.44;47.84
74224;SHT31;62585;49.706;18.216;2023-09-07T12:39:31;29.48;47.34
74224;SHT31;62585;49.706;18.216;2023-09-07T12:41:57;29.66;46.88
74224;SHT31;62585;49.706;18.216;2023-09-07T12:44:23;29.85;49.18
74224;SHT31;62585;49.706;18.216;2023-09-07T12:46:48;29.86;45.76
74224;SHT31;62585;49.706;18.216;2023-09-07T12:49:14;29.76;45.77
74224;SHT31;62585;49.706;18.216;2023-09-07T12:51:41;29.59;46.45
74224;SHT31;62585;49.706;18.216;2023-09-07T12:54:07;29.62;46.41
74224;SHT31;62585;49.706;18.216;2023-09-07T12:56:33;29.66;46.87
74224;SHT31;62585;49.706;18.216;2023-09-07T12:58:59;29.65;46.46
74224;SHT31;62585;49.706;18.216;2023-09-07T13:01:28;29.73;45.06
74224;SHT31;62585;49.706;18.216;2023-09-07T13:03:54;29.92;46.18
74224;SHT31;62585;49.706;18.216;2023-09-07T13:06:20;30.05;45.72
74224;SHT31;62585;49.706;18.216;2023-09-07T13:08:45;30.34;45.40
74224;SHT31;62585;49.706;18.216;2023-09-07T13:11:11;30.17;45.41
74224;SHT31;62585;49.706;18.216;2023-09-07T13:13:38;30.20;46.22
74224;SHT31;62585;49.706;18.216;2023-09-07T13:16:04;30.16;44.94
74224;SHT31;62585;49.706;18.216;2023-09-07T13:18:30;29.82;45.82
74224;SHT31;62585;49.706;18.216;2023-09-07T13:20:57;29.71;47.01
74224;SHT31;62585;49.706;18.216;2023-09-07T13:23:27;29.93;47.16
74224;SHT31;62585;49.706;18.216;2023-09-07T13:25:54;29.57;47.54
74224;SHT31;62585;49.706;18.216;2023-09-07T13:28:20;29.73;47.18
74224;SHT31;62585;49.706;18.216;2023-09-07T13:30:46;29.59;47.54
74224;SHT31;62585;49.706;18.216;2023-09-07T13:33:12;29.83;48.73
74224;SHT31;62585;49.706;18.216;2023-09-07T13:35:38;29.95;47.76
74224;SHT31;62585;49.706;18.216;2023-09-07T13:38:05;30.12;47.60
74224;SHT31;62585;49.706;18.216;2023-09-07T13:40:31;29.78;47.40
74224;SHT31;62585;49.706;18.216;2023-09-07T13:42:57;29.24;48.61
74224;SHT31;62585;49.706;18.216;2023-09-07T13:45:23;28.93;49.23
74224;SHT31;62585;49.706;18.216;2023-09-07T13:47:49;29.20;48.88
74224;SHT31;62585;49.706;18.216;2023-09-07T13:50:14;29.50;49.10
74224;SHT31;62585;49.706;18.216;2023-09-07T13:52:41;29.83;47.99
74224;SHT31;62585;49.706;18.216;2023-09-07T13:55:07;30.08;47.83
74224;SHT31;62585;49.706;18.216;2023-09-07T13:57:33;30.37;47.17
74224;SHT31;62585;49.706;18.216;2023-09-07T13:59:59;30.26;45.77
74224;SHT31;62585;49.706;18.216;2023-09-07T14:02:26;30.23;47.10
74224;SHT31;62585;49.706;18.216;2023-09-07T14:04:52;30.08;47.40
74224;SHT31;62585;49.706;18.216;2023-09-07T14:07:18;30.34;47.35
74224;SHT31;62585;49.706;18.216;2023-09-07T14:09:44;30.48;46.92
74224;SHT31;62585;49.706;18.216;2023-09-07T14:18:21;29.61;48.38
74224;SHT31;62585;49.706;18.216;2023-09-07T14:20:47;29.71;48.06
74224;SHT31;62585;49.706;18.216;2023-09-07T14:23:12;29.69;47.95
74224;SHT31;62585;49.706;18.216;2023-09-07T14:25:38;29.61;47.19
74224;SHT31;62585;49.706;18.216;2023-09-07T14:28:07;29.90;45.95
74224;SHT31;62585;49.706;18.216;2023-09-07T14:30:33;29.99;46.15
74224;SHT31;62585;49.706;18.216;2023-09-07T14:32:59;29.99;47.39
74224;SHT31;62585;49.706;18.216;2023-09-07T14:35:25;29.82;47.02
74224;SHT31;62585;49.706;18.216;2023-09-07T14:37:50;29.93;46.43
74224;SHT31;62585;49.706;18.216;2023-09-07T14:40:18;29.83;47.63
74224;SHT31;62585;49.706;18.216;2023-09-07T14:42:44;29.59;47.56
74224;SHT31;62585;49.706;18.216;2023-09-07T14:45:10;29.58;47.39
74224;SHT31;62585;49.706;18.216;2023-09-07T14:47:35;29.10;47.72
74224;SHT31;62585;49.706;18.216;2023-09-07T14:50:01;29.15;47.70
74224;SHT31;62585;49.706;18.216;2023-09-07T14:52:28;28.83;48.67
74224;SHT31;62585;49.706;18.216;2023-09-07T14:54:54;29.08;49.59
74224;SHT31;62585;49.706;18.216;2023-09-07T14:57:20;29.31;48.64
74224;SHT31;62585;49.706;18.216;2023-09-07T14:59:46;29.45;47.10
74224;SHT31;62585;49.706;18.216;2023-09-07T15:02:11;29.37;47.86
74224;SHT31;62585;49.706;18.216;2023-09-07T15:04:37;29.34;48.43
74224;SHT31;62585;49.706;18.216;2023-09-07T15:07:03;29.35;49.16
74224;SHT31;62585;49.706;18.216;2023-09-07T15:09:29;29.31;47.74
74224;SHT31;62585;49.706;18.216;2023-09-07T15:11:55;29.13;47.78
74224;SHT31;62585;49.706;18.216;2023-09-07T15:14:21;28.99;48.54
74224;SHT31;62585;49.706;18.216;2023-09-07T15:16:46;29.14;48.69
74224;SHT31;62585;49.706;18.216;2023-09-07T15:19:12;28.97;48.74
74224;SHT31;62585;49.706;18.216;2023-09-07T15:21:38;29.15;48.68